Time;durP1;ratioP1;P1;durP2;ratioP2;P2;SDS_P1;SDS_P2;PMS_P1;PMS_P2;Temp;Humidity;BMP_temperature;BMP_pressure;BME280_temperature;BME280_humidity;BME280_pressure;Samples;Min_cycle;Max_cycle;Signal;HPM_P1;HPM_P2
2023/03/26 00:01:37;;;;;;;2.40;2.20;;;;;;;14.13;57.12;100671.19;5072327;28;20383;-78
2023/03/26 00:04:05;;;;;;;3.80;2.95;;;;;;;13.91;57.36;100667.72;5073154;28;20724;-77
2023/03/26 00:06:36;;;;;;;5.68;3.38;;;;;;;13.86;57.47;100662.13;5072559;28;20394;-77
2023/03/26 00:09:03;;;;;;;4.80;3.80;;;;;;;13.76;57.60;100662.47;5071826;28;20383;-78
2023/03/26 00:11:29;;;;;;;3.50;3.15;;;;;;;13.83;57.05;100677.69;5071958;28;20371;-77
2023/03/26 00:13:56;;;;;;;3.78;3.38;;;;;;;13.80;57.18;100670.09;5072496;28;20905;-77
2023/03/26 00:16:23;;;;;;;3.55;3.25;;;;;;;13.85;56.84;100676.50;5072553;28;20391;-78
2023/03/26 00:18:50;;;;;;;3.58;3.15;;;;;;;13.81;56.97;100674.41;5073050;28;20733;-78
2023/03/26 00:21:19;;;;;;;3.45;3.15;;;;;;;13.67;56.96;100686.78;5072690;28;20921;-77
2023/03/26 00:23:46;;;;;;;3.03;2.75;;;;;;;13.63;57.07;100682.84;5071482;28;20386;-77
2023/03/26 00:26:12;;;;;;;5.50;3.50;;;;;;;13.68;56.67;100686.56;5071327;28;20422;-78
2023/03/26 00:28:39;;;;;;;3.78;3.38;;;;;;;13.69;56.70;100696.22;5072043;28;20407;-77
2023/03/26 00:31:11;;;;;;;4.13;3.30;;;;;;;13.70;56.79;100697.03;5071157;28;20459;-78
2023/03/26 00:33:39;;;;;;;4.25;3.47;;;;;;;13.61;56.54;100703.53;5070110;28;20468;-78
2023/03/26 00:36:09;;;;;;;3.95;3.55;;;;;;;13.68;56.04;100701.75;5072004;28;20391;-77
2023/03/26 00:38:37;;;;;;;4.38;3.40;;;;;;;13.67;55.37;100700.13;5072290;28;20863;-78
2023/03/26 00:41:06;;;;;;;4.32;3.90;;;;;;;13.67;54.95;100702.78;5071746;28;20375;-78
2023/03/26 00:43:34;;;;;;;3.83;3.50;;;;;;;13.47;54.40;100703.41;5071341;28;20379;-78
2023/03/26 00:46:01;;;;;;;3.92;3.40;;;;;;;13.34;54.01;100700.59;5071546;28;20394;-77
2023/03/26 00:48:28;;;;;;;4.20;3.63;;;;;;;13.49;53.80;100704.03;5071501;28;20391;-77
2023/03/26 00:50:55;;;;;;;4.15;3.75;;;;;;;13.42;53.81;100697.00;5071358;28;20425;-77
2023/03/26 00:53:20;;;;;;;4.75;3.78;;;;;;;13.45;53.52;100710.75;5071471;28;20386;-77
2023/03/26 00:55:47;;;;;;;4.65;4.15;;;;;;;13.53;53.32;100709.81;5071337;28;20367;-77
2023/03/26 00:58:13;;;;;;;4.20;3.80;;;;;;;13.49;53.37;100717.34;5070153;28;20871;-77
2023/03/26 01:00:52;;;;;;;6.03;3.70;;;;;;;13.46;53.36;100720.38;5071515;28;20387;-77
2023/03/26 01:03:20;;;;;;;6.05;3.90;;;;;;;13.34;53.57;100724.53;5071442;28;20378;-77
2023/03/26 01:05:53;;;;;;;4.55;3.67;;;;;;;13.37;53.33;100722.31;5071281;28;20452;-77
2023/03/26 01:08:45;;;;;;;4.47;3.67;;;;;;;13.35;53.15;100736.84;5071233;28;20447;-77
2023/03/26 01:11:16;;;;;;;3.35;3.03;;;;;;;13.24;53.15;100729.31;5071044;28;20378;-77
2023/03/26 01:13:49;;;;;;;4.38;3.92;;;;;;;13.35;52.91;100729.69;5069898;28;20394;-77
2023/03/26 01:16:26;;;;;;;5.18;3.88;;;;;;;13.21;53.19;100738.50;5071080;28;20956;-76
2023/03/26 01:18:52;;;;;;;4.68;4.18;;;;;;;13.31;52.91;100743.56;5071565;28;20379;-78
2023/03/26 01:21:28;;;;;;;4.50;4.10;;;;;;;13.24;52.63;100738.13;5071848;28;20458;-78
2023/03/26 01:23:56;;;;;;;4.10;3.70;;;;;;;13.25;52.50;100722.97;5071752;28;20406;-77
2023/03/26 01:26:46;;;;;;;5.85;3.83;;;;;;;13.26;52.44;100724.63;5070364;28;20391;-78
2023/03/26 01:29:30;;;;;;;3.67;3.33;;;;;;;13.22;52.52;100721.53;5070165;28;20363;-77
2023/03/26 01:32:20;;;;;;;4.28;3.75;;;;;;;13.18;52.78;100720.22;5071101;28;20383;-77
2023/03/26 01:35:17;;;;;;;4.03;3.72;;;;;;;13.16;52.03;100730.25;5071521;28;20425;-77
2023/03/26 01:37:57;;;;;;;4.25;3.70;;;;;;;13.15;52.23;100729.44;5070656;28;20536;-77
2023/03/26 01:40:41;;;;;;;4.53;3.92;;;;;;;13.25;52.09;100722.97;5070867;28;20840;-77
2023/03/26 01:43:16;;;;;;;4.28;3.88;;;;;;;13.38;51.82;100724.00;5070412;28;20386;-77
2023/03/26 01:45:45;;;;;;;6.15;4.35;;;;;;;13.22;51.94;100729.50;5068467;28;20375;-77
2023/03/26 01:48:11;;;;;;;5.35;4.40;;;;;;;13.15;52.36;100717.97;5076647;28;20400;-77
2023/03/26 01:50:36;;;;;;;4.72;4.00;;;;;;;13.17;52.14;100729.25;5067520;28;20375;-77
2023/03/26 01:53:02;;;;;;;4.43;4.03;;;;;;;12.90;52.96;100728.09;5070713;28;20901;-77
2023/03/26 01:55:40;;;;;;;4.75;3.97;;;;;;;12.75;53.23;100728.09;5070014;28;20382;-77
2023/03/26 01:58:31;;;;;;;4.82;4.32;;;;;;;12.79;53.27;100732.03;5070210;28;20395;-77
2023/03/26 02:01:29;;;;;;;5.53;4.40;;;;;;;12.84;53.21;100731.47;5070865;28;20401;-77
2023/03/26 02:04:15;;;;;;;5.40;4.38;;;;;;;12.52;53.63;100738.81;5070087;28;20386;-77
2023/03/26 02:06:50;;;;;;;4.87;4.37;;;;;;;12.51;53.59;100747.78;5069828;28;20386;-77
2023/03/26 02:09:22;;;;;;;6.15;4.15;;;;;;;12.52;53.11;100739.63;5070781;28;20804;-77
2023/03/26 02:11:49;;;;;;;5.63;4.43;;;;;;;12.59;53.23;100758.34;5070483;28;20443;-77
2023/03/26 02:14:15;;;;;;;5.10;4.57;;;;;;;12.54;53.16;100745.59;5070793;28;20371;-77
2023/03/26 02:16:45;;;;;;;4.82;4.22;;;;;;;12.58;53.01;100748.72;5070704;28;20489;-78
2023/03/26 02:19:14;;;;;;;5.15;4.43;;;;;;;12.60;52.97;100738.72;5070691;28;20744;-77
2023/03/26 02:21:41;;;;;;;5.70;4.80;;;;;;;12.50;53.54;100743.50;5070744;28;20386;-77
2023/03/26 02:24:06;;;;;;;5.07;4.57;;;;;;;12.19;54.07;100732.00;5070316;28;20439;-77
2023/03/26 02:26:36;;;;;;;4.97;4.37;;;;;;;12.12;54.09;100738.19;5071249;28;20402;-78
2023/03/26 02:29:02;;;;;;;5.32;4.75;;;;;;;12.15;54.17;100746.63;5071107;28;20390;-77
2023/03/26 02:31:28;;;;;;;4.93;4.43;;;;;;;12.00;54.47;100749.25;5071795;28;20403;-78
2023/03/26 02:33:55;;;;;;;4.60;4.20;;;;;;;11.86;54.63;100753.47;5071245;28;20383;-77
2023/03/26 02:36:26;;;;;;;5.55;4.10;;;;;;;11.83;54.66;100759.16;5071336;28;20391;-78
2023/03/26 02:38:52;;;;;;;5.30;3.95;;;;;;;11.85;54.62;100751.81;5071365;28;20399;-79
2023/03/26 02:41:18;;;;;;;5.20;4.13;;;;;;;11.72;54.85;100772.00;5071151;28;20366;-77
2023/03/26 02:43:44;;;;;;;4.20;3.80;;;;;;;11.64;54.88;100770.22;5070999;28;20440;-76
2023/03/26 02:46:09;;;;;;;3.93;3.53;;;;;;;11.65;54.64;100771.88;5070623;28;20363;-78
2023/03/26 02:48:35;;;;;;;5.30;4.20;;;;;;;11.77;54.03;100785.56;5070924;28;20389;-77
2023/03/26 02:51:01;;;;;;;4.37;3.90;;;;;;;11.84;53.95;100791.84;5070614;28;20366;-78
2023/03/26 02:53:29;;;;;;;4.53;3.97;;;;;;;11.73;54.18;100790.41;5070259;28;20424;-79
2023/03/26 02:55:56;;;;;;;5.57;4.32;;;;;;;11.85;54.06;100798.81;5073833;28;20379;-77
2023/03/26 02:58:24;;;;;;;7.07;4.18;;;;;;;11.88;53.39;100795.78;5074087;28;20382;-77
2023/03/26 03:00:53;;;;;;;4.45;4.05;;;;;;;12.07;53.04;100807.81;5073841;28;20386;-76
2023/03/26 03:03:23;;;;;;;5.25;4.20;;;;;;;12.18;52.50;100798.59;5074182;28;20375;-77
2023/03/26 03:05:50;;;;;;;4.55;4.00;;;;;;;12.26;52.35;100809.16;5073862;28;20452;-77
2023/03/26 03:08:17;;;;;;;6.97;6.22;;;;;;;12.36;51.86;100803.59;5073931;28;20378;-77
2023/03/26 03:10:43;;;;;;;6.82;5.07;;;;;;;12.33;51.67;100811.94;5074332;28;20847;-77
2023/03/26 03:13:08;;;;;;;5.57;4.50;;;;;;;12.38;51.59;100815.69;5074275;28;20425;-77
2023/03/26 03:15:34;;;;;;;8.60;7.85;;;;;;;12.46;51.28;100811.31;5074816;28;20386;-77
2023/03/26 03:18:00;;;;;;;4.57;4.10;;;;;;;12.51;51.21;100822.25;5074360;28;20395;-77
2023/03/26 03:20:25;;;;;;;5.57;4.20;;;;;;;12.48;50.89;100817.28;5074290;28;20864;-77
2023/03/26 03:22:51;;;;;;;5.87;5.27;;;;;;;12.45;51.04;100815.81;5073810;28;20382;-77
2023/03/26 03:25:16;;;;;;;4.50;4.10;;;;;;;12.42;50.98;100824.13;5073827;28;20375;-77
2023/03/26 03:27:43;;;;;;;4.43;4.03;;;;;;;12.42;50.99;100814.34;5072948;28;20867;-77
2023/03/26 03:30:11;;;;;;;7.63;5.40;;;;;;;12.50;50.57;100824.09;5074150;28;20407;-77
2023/03/26 03:32:37;;;;;;;5.40;4.90;;;;;;;12.50;50.59;100813.44;5073980;28;20410;-77
2023/03/26 03:35:02;;;;;;;6.03;4.50;;;;;;;12.52;50.57;100822.06;5054995;28;20377;-78
2023/03/26 03:37:28;;;;;;;6.63;4.78;;;;;;;12.42;50.55;100822.34;5053583;28;20440;-78
2023/03/26 03:39:53;;;;;;;4.60;4.20;;;;;;;12.27;50.65;100820.63;5053366;28;20396;-77
2023/03/26 03:42:19;;;;;;;4.25;3.80;;;;;;;12.26;50.78;100837.56;5052474;28;20384;-77
2023/03/26 03:44:45;;;;;;;4.10;3.70;;;;;;;12.29;50.50;100840.69;5053470;28;20381;-77
2023/03/26 03:47:12;;;;;;;5.03;4.20;;;;;;;12.33;50.19;100852.63;5053274;28;20930;-77
2023/03/26 03:49:41;;;;;;;4.18;3.78;;;;;;;12.10;50.61;100843.81;5053356;28;20368;-77
2023/03/26 03:52:06;;;;;;;3.90;3.50;;;;;;;12.10;50.75;100846.47;5052746;28;20475;-76
2023/03/26 03:54:32;;;;;;;3.90;3.60;;;;;;;12.14;50.46;100845.97;5053196;28;20542;-77
2023/03/26 03:56:58;;;;;;;4.45;3.83;;;;;;;12.26;50.52;100842.88;5053269;28;20400;-78
2023/03/26 03:59:23;;;;;;;4.50;4.10;;;;;;;12.28;50.25;100843.53;5053186;28;20491;-78
2023/03/26 04:01:49;;;;;;;4.83;4.30;;;;;;;12.22;50.29;100834.44;5052778;28;20377;-77
2023/03/26 04:04:15;;;;;;;3.80;3.40;;;;;;;12.21;50.18;100828.31;5053017;28;20389;-76
2023/03/26 04:06:41;;;;;;;3.75;3.45;;;;;;;12.17;50.28;100836.78;5050492;28;20385;-76
2023/03/26 04:09:08;;;;;;;4.27;3.63;;;;;;;12.15;50.28;100831.66;5052758;28;20804;-77
2023/03/26 04:11:34;;;;;;;3.90;3.50;;;;;;;11.97;50.54;100823.97;5052749;28;20376;-76
2023/03/26 04:13:59;;;;;;;4.23;3.40;;;;;;;11.91;50.69;100831.84;5052828;28;20398;-77
2023/03/26 04:16:25;;;;;;;3.60;3.30;;;;;;;11.86;50.66;100827.00;5052764;28;20428;-77
2023/03/26 04:18:50;;;;;;;3.73;3.27;;;;;;;11.93;50.96;100838.63;5052823;28;20857;-77
2023/03/26 04:21:16;;;;;;;3.47;3.17;;;;;;;11.85;50.46;100849.28;5062513;28;20377;-77
2023/03/26 04:23:41;;;;;;;3.67;3.28;;;;;;;11.84;50.77;100837.81;5062494;28;20380;-77
2023/03/26 04:26:12;;;;;;;5.53;5.03;;;;;;;12.01;50.57;100841.25;5063888;28;20716;-78
2023/03/26 04:28:52;;;;;;;5.05;4.55;;;;;;;12.01;50.62;100835.94;5061960;28;20376;-77
2023/03/26 04:31:23;;;;;;;5.18;4.03;;;;;;;12.07;50.78;100838.88;5059235;28;20468;-77
2023/03/26 04:33:54;;;;;;;4.75;4.32;;;;;;;12.13;50.70;100848.78;5060889;28;20371;-77
2023/03/26 04:36:26;;;;;;;4.25;3.85;;;;;;;12.26;50.75;100841.03;5062866;28;20414;-77
2023/03/26 04:38:52;;;;;;;4.50;4.10;;;;;;;12.15;50.82;100836.97;5061201;28;20380;-77
2023/03/26 04:41:19;;;;;;;6.70;4.38;;;;;;;12.23;50.70;100844.06;5063330;28;20377;-78
2023/03/26 04:43:49;;;;;;;4.70;4.30;;;;;;;12.33;50.81;100849.97;5061228;28;20766;-77
2023/03/26 04:46:20;;;;;;;5.40;4.30;;;;;;;12.28;50.83;100855.00;5062012;28;20879;-77
2023/03/26 04:48:50;;;;;;;4.82;4.00;;;;;;;12.36;50.88;100856.78;5060978;28;20379;-78
2023/03/26 04:51:17;;;;;;;4.57;4.15;;;;;;;12.43;50.66;100853.22;5054191;28;20416;-77
2023/03/26 04:53:51;;;;;;;5.35;4.30;;;;;;;12.46;50.52;100849.38;5052034;28;20475;-77
2023/03/26 04:56:25;;;;;;;5.03;4.32;;;;;;;12.51;50.90;100849.66;5051750;28;20397;-77
2023/03/26 04:58:55;;;;;;;4.68;4.20;;;;;;;12.54;50.66;100851.97;5051956;28;20418;-77
2023/03/26 05:01:23;;;;;;;4.87;4.20;;;;;;;12.52;50.52;100858.47;5051950;28;20395;-77
2023/03/26 05:03:48;;;;;;;4.63;3.90;;;;;;;12.36;50.79;100864.75;5050462;28;20730;-77
2023/03/26 05:06:16;;;;;;;4.60;3.85;;;;;;;12.28;50.91;100852.34;5051231;28;20373;-77
2023/03/26 05:08:41;;;;;;;5.63;4.40;;;;;;;12.28;50.92;100860.31;5052053;28;20377;-77
2023/03/26 05:11:10;;;;;;;11.23;10.07;;;;;;;12.36;51.01;100867.41;5051735;28;20431;-77
2023/03/26 05:13:36;;;;;;;5.82;3.50;;;;;;;12.43;50.75;100858.53;5052175;28;20476;-78
2023/03/26 05:16:02;;;;;;;3.80;3.50;;;;;;;12.35;50.60;100857.75;5051801;28;20381;-77
2023/03/26 05:18:28;;;;;;;4.82;4.40;;;;;;;12.41;50.47;100851.75;5050239;28;20388;-77
2023/03/26 05:20:56;;;;;;;6.27;4.30;;;;;;;12.50;50.48;100848.00;5051943;28;20465;-77
2023/03/26 05:23:21;;;;;;;4.90;3.72;;;;;;;12.60;50.20;100845.09;5051858;28;20423;-77
2023/03/26 05:25:47;;;;;;;3.97;3.57;;;;;;;12.67;49.95;100845.22;5051889;28;20800;-77
2023/03/26 05:28:12;;;;;;;3.80;3.40;;;;;;;12.63;49.89;100860.69;5051856;28;20388;-77
2023/03/26 05:30:38;;;;;;;7.77;7.17;;;;;;;12.66;50.19;100840.88;5051964;28;20383;-77
2023/03/26 05:33:03;;;;;;;3.97;3.58;;;;;;;12.84;49.76;100836.06;5051381;28;20845;-77
2023/03/26 05:35:29;;;;;;;4.47;3.10;;;;;;;12.95;49.40;100843.59;5051781;28;20385;-79
2023/03/26 05:37:54;;;;;;;5.57;3.47;;;;;;;13.04;49.10;100844.34;5052177;28;20929;-78
2023/03/26 05:40:20;;;;;;;3.90;3.20;;;;;;;13.12;49.13;100846.06;5052069;28;20376;-78
2023/03/26 05:42:46;;;;;;;3.30;2.90;;;;;;;13.15;49.08;100841.22;5052273;28;20468;-78
2023/03/26 05:45:13;;;;;;;3.20;2.83;;;;;;;13.15;48.88;100838.56;5051185;28;20375;-77
2023/03/26 05:47:39;;;;;;;3.97;2.88;;;;;;;13.30;49.01;100830.56;5051826;28;20373;-77
2023/03/26 05:50:06;;;;;;;4.30;2.90;;;;;;;13.49;48.82;100839.84;5052766;28;20490;-77
2023/03/26 05:52:31;;;;;;;3.50;2.63;;;;;;;13.49;48.18;100850.50;5051835;28;20400;-78
2023/03/26 05:54:57;;;;;;;3.80;2.75;;;;;;;13.58;48.58;100840.56;5053100;28;20514;-79
2023/03/26 05:57:22;;;;;;;3.67;3.10;;;;;;;13.81;48.43;100844.91;5053386;28;20469;-77
2023/03/26 05:59:49;;;;;;;4.10;2.80;;;;;;;13.93;48.19;100854.88;5052288;28;20377;-77
2023/03/26 06:02:14;;;;;;;3.45;2.40;;;;;;;13.85;47.82;100847.03;5050262;28;20377;-78
2023/03/26 06:04:41;;;;;;;4.03;2.37;;;;;;;13.80;47.85;100841.44;5050342;28;20392;-78
2023/03/26 06:07:10;;;;;;;4.10;2.70;;;;;;;13.84;47.66;100836.56;5053273;28;20742;-79
2023/03/26 06:09:37;;;;;;;3.22;2.60;;;;;;;13.83;47.68;100848.22;5059680;28;21424;-78
2023/03/26 06:12:04;;;;;;;6.10;3.00;;;;;;;13.87;47.65;100849.50;5056998;28;20388;-77
2023/03/26 06:14:30;;;;;;;4.15;2.83;;;;;;;13.98;47.36;100858.84;5059911;28;20381;-78
2023/03/26 06:16:55;;;;;;;6.83;4.10;;;;;;;14.03;48.04;100848.44;5059729;28;21394;-77
2023/03/26 06:19:21;;;;;;;7.43;3.60;;;;;;;14.03;47.27;100843.13;5061676;28;20402;-77
2023/03/26 06:21:46;;;;;;;5.07;3.37;;;;;;;14.12;47.29;100856.13;5060084;28;20848;-76
2023/03/26 06:24:12;;;;;;;3.83;2.90;;;;;;;14.00;47.57;100854.16;5059829;28;20425;-78
2023/03/26 06:26:37;;;;;;;3.50;2.47;;;;;;;14.19;46.90;100848.19;5065216;28;20428;-77
2023/03/26 06:29:03;;;;;;;3.33;2.37;;;;;;;14.40;46.72;100854.53;5061355;28;21185;-79
2023/03/26 06:31:28;;;;;;;3.25;2.35;;;;;;;14.39;46.11;100852.91;5066781;28;20467;-78
2023/03/26 06:33:54;;;;;;;3.63;2.33;;;;;;;14.24;46.19;100859.13;5070798;28;20393;-79
2023/03/26 06:36:19;;;;;;;3.13;1.98;;;;;;;14.25;46.06;100863.44;5017637;28;20410;-78
2023/03/26 06:38:45;;;;;;;3.70;2.00;;;;;;;14.34;46.10;100858.78;5014053;28;20483;-78
2023/03/26 06:41:10;;;;;;;4.10;2.22;;;;;;;14.55;46.05;100868.63;5045941;28;20386;-78
2023/03/26 06:43:37;;;;;;;2.83;2.20;;;;;;;14.39;46.30;100867.06;5050698;28;20394;-78
2023/03/26 06:46:03;;;;;;;2.07;1.70;;;;;;;14.10;45.92;100866.16;5049206;28;20382;-79
2023/03/26 06:48:29;;;;;;;2.73;2.10;;;;;;;14.25;46.81;100858.09;5044383;28;20393;-78
2023/03/26 06:50:55;;;;;;;3.00;2.07;;;;;;;14.56;45.97;100862.25;5055533;28;20872;-78
2023/03/26 06:53:20;;;;;;;1.85;1.67;;;;;;;14.52;45.64;100853.81;5045071;28;20747;-78
2023/03/26 06:55:46;;;;;;;2.70;2.10;;;;;;;14.54;45.88;100851.78;5044338;28;20713;-78
2023/03/26 06:58:12;;;;;;;4.00;2.67;;;;;;;14.50;45.83;100861.19;5041887;28;20406;-78
2023/03/26 07:00:37;;;;;;;4.45;2.88;;;;;;;14.67;46.12;100871.63;5045807;28;20397;-78
2023/03/26 07:03:04;;;;;;;3.75;2.90;;;;;;;14.81;45.81;100884.03;5043226;28;20383;-79
2023/03/26 07:05:30;;;;;;;3.70;2.17;;;;;;;14.68;45.42;100892.78;5038954;28;20457;-78
2023/03/26 07:07:55;;;;;;;3.00;2.00;;;;;;;14.66;45.12;100891.31;5055220;28;20411;-79
2023/03/26 07:10:21;;;;;;;3.53;1.90;;;;;;;14.72;44.73;100898.56;5056466;28;20385;-78
2023/03/26 07:12:46;;;;;;;2.00;1.60;;;;;;;14.55;43.78;100895.31;5047511;28;20382;-78
2023/03/26 07:15:12;;;;;;;1.83;1.67;;;;;;;14.63;43.89;100895.19;5053750;28;20757;-78
2023/03/26 07:17:38;;;;;;;2.57;1.60;;;;;;;14.97;43.19;100893.59;5054768;28;20423;-78
2023/03/26 07:20:06;;;;;;;1.90;1.60;;;;;;;14.94;43.23;100893.19;5044246;28;20747;-78
2023/03/26 07:22:31;;;;;;;3.35;1.58;;;;;;;15.16;42.83;100896.59;5046673;28;20378;-79
2023/03/26 07:24:57;;;;;;;2.58;2.00;;;;;;;15.15;42.17;100873.59;5052752;28;20397;-79
2023/03/26 07:27:40;;;;;;;4.50;3.00;;;;;;;15.14;42.03;100879.97;5042740;28;20373;-78
2023/03/26 07:30:13;;;;;;;2.70;1.90;;;;;;;15.20;41.83;100877.34;5056583;28;20721;-79
2023/03/26 07:32:54;;;;;;;1.50;1.30;;;;;;;15.29;41.53;100886.03;5048603;28;20396;-78
2023/03/26 07:35:22;;;;;;;3.05;1.23;;;;;;;15.18;41.11;100892.72;5043453;28;20386;-77
2023/03/26 07:38:08;;;;;;;1.20;1.10;;;;;;;15.33;40.89;100897.94;5052924;28;20417;-80
2023/03/26 07:40:44;;;;;;;1.02;0.93;;;;;;;15.11;40.81;100907.88;5050661;28;20457;-79
2023/03/26 07:43:48;;;;;;;1.73;1.15;;;;;;;14.99;40.69;100901.44;5071209;28;20422;-77
2023/03/26 07:46:14;;;;;;;1.10;1.00;;;;;;;15.25;40.23;100903.44;5062075;28;20397;-78
2023/03/26 07:48:43;;;;;;;1.73;1.13;;;;;;;15.39;39.99;100897.16;5073840;28;20379;-78
2023/03/26 07:51:10;;;;;;;2.67;1.20;;;;;;;15.59;39.23;100885.75;5072797;28;20414;-77
2023/03/26 07:53:36;;;;;;;1.17;1.00;;;;;;;15.47;39.09;100888.16;5066167;28;20463;-78
2023/03/26 07:56:45;;;;;;;4.95;2.70;;;;;;;15.73;39.60;100898.13;5059886;28;20467;-77
2023/03/26 07:59:33;;;;;;;1.83;1.50;;;;;;;15.89;40.49;100902.34;5055843;28;20967;-77
2023/03/26 08:02:32;;;;;;;1.95;1.30;;;;;;;15.91;40.78;100902.16;5063467;28;20377;-79
2023/03/26 08:05:25;;;;;;;2.25;1.48;;;;;;;15.92;40.58;100899.28;5042092;28;21347;-78
2023/03/26 08:08:18;;;;;;;1.70;1.20;;;;;;;15.81;39.91;100908.69;5052827;28;20403;-80
2023/03/26 08:10:56;;;;;;;2.08;1.50;;;;;;;15.47;40.11;100901.53;5038178;28;20391;-78
2023/03/26 08:13:34;;;;;;;1.97;1.30;;;;;;;15.46;39.74;100907.88;5062314;28;20418;-76
2023/03/26 08:16:08;;;;;;;1.70;1.13;;;;;;;15.63;39.76;100903.03;5052593;28;20414;-78
2023/03/26 08:18:48;;;;;;;2.60;1.40;;;;;;;15.61;39.56;100907.75;5055291;28;20927;-77
2023/03/26 08:21:27;;;;;;;2.28;1.38;;;;;;;15.76;38.62;100899.63;5051097;28;20391;-77
2023/03/26 08:24:15;;;;;;;1.90;1.27;;;;;;;15.61;38.82;100902.41;5051068;28;20716;-76
2023/03/26 08:27:02;;;;;;;2.00;1.45;;;;;;;15.80;38.30;100900.88;5051139;28;20381;-76
2023/03/26 08:29:37;;;;;;;1.55;1.17;;;;;;;15.74;38.10;100902.50;5052800;28;20395;-77
2023/03/26 08:32:08;;;;;;;2.00;1.17;;;;;;;15.68;37.73;100898.75;5053594;28;20381;-78
2023/03/26 08:34:34;;;;;;;1.65;1.20;;;;;;;15.73;37.89;100903.47;5053554;28;20385;-77
2023/03/26 08:37:00;;;;;;;1.88;1.23;;;;;;;15.59;37.90;100897.28;5053410;28;20900;-77
2023/03/26 08:39:25;;;;;;;1.42;1.33;;;;;;;15.94;37.54;100897.22;5052580;28;20932;-77
2023/03/26 08:42:29;;;;;;;1.73;1.30;;;;;;;15.97;37.28;100899.50;5051852;28;20542;-76
2023/03/26 08:45:12;;;;;;;1.33;1.20;;;;;;;16.09;37.29;100894.38;5048367;28;20456;-76
2023/03/26 08:48:01;;;;;;;3.10;1.47;;;;;;;15.93;37.60;100873.34;5051027;28;20388;-78
2023/03/26 08:51:02;;;;;;;2.70;1.73;;;;;;;15.94;36.65;100888.38;5050937;28;20880;-77
2023/03/26 08:53:27;;;;;;;2.70;1.50;;;;;;;16.08;37.00;100889.22;5050680;28;20400;-77
2023/03/26 08:56:11;;;;;;;2.80;1.20;;;;;;;16.14;37.14;100864.38;5050806;28;20381;-78
2023/03/26 08:58:49;;;;;;;2.50;1.17;;;;;;;15.96;36.03;100879.13;5049580;28;20408;-76
2023/03/26 09:01:35;;;;;;;1.52;1.17;;;;;;;15.82;37.11;100877.44;5049760;28;20381;-78
2023/03/26 09:04:26;;;;;;;1.52;1.33;;;;;;;16.09;36.32;100882.88;5050323;28;20917;-76
2023/03/26 09:07:14;;;;;;;2.50;1.35;;;;;;;16.08;36.17;100883.88;5051879;28;20434;-77
2023/03/26 09:10:17;;;;;;;1.38;1.25;;;;;;;15.93;35.60;100876.03;5052063;28;20450;-76
2023/03/26 09:12:57;;;;;;;1.40;1.30;;;;;;;15.95;36.03;100872.13;5051426;28;20403;-77
2023/03/26 09:15:32;;;;;;;1.52;1.27;;;;;;;16.08;36.71;100860.66;5051252;28;20376;-77
2023/03/26 09:18:35;;;;;;;2.10;1.20;;;;;;;16.31;35.84;100864.78;5051611;28;20907;-77
2023/03/26 09:21:29;;;;;;;3.65;1.67;;;;;;;16.47;35.81;100879.63;5051311;28;20469;-76
2023/03/26 09:24:21;;;;;;;2.45;1.10;;;;;;;16.49;34.97;100856.16;5050398;28;20384;-77
2023/03/26 09:26:56;;;;;;;1.55;1.20;;;;;;;16.62;34.71;100840.94;5050896;28;20442;-77
2023/03/26 09:29:21;;;;;;;2.15;1.10;;;;;;;16.77;34.41;100850.59;5051073;28;20388;-77
2023/03/26 09:32:02;;;;;;;1.58;1.23;;;;;;;16.56;34.53;100838.25;5049993;28;20459;-77
2023/03/26 09:34:29;;;;;;;1.27;1.10;;;;;;;16.38;34.29;100845.03;5051035;28;20377;-76
2023/03/26 09:37:15;;;;;;;1.43;1.10;;;;;;;16.34;33.49;100846.47;5051062;28;20451;-77
2023/03/26 09:39:47;;;;;;;2.40;1.30;;;;;;;16.52;33.81;100837.84;5050640;28;20395;-76
2023/03/26 09:42:30;;;;;;;1.48;1.10;;;;;;;16.73;33.64;100830.63;5050799;28;20439;-78
2023/03/26 09:45:09;;;;;;;1.35;1.13;;;;;;;16.89;33.58;100824.88;5049909;28;20380;-77
2023/03/26 09:48:08;;;;;;;2.70;1.40;;;;;;;16.73;33.97;100820.75;5050642;28;20800;-77
2023/03/26 09:50:55;;;;;;;2.72;1.23;;;;;;;16.57;33.98;100819.31;5050685;28;20443;-77
2023/03/26 09:53:54;;;;;;;1.52;1.10;;;;;;;16.61;33.79;100833.09;5050603;28;20432;-77
2023/03/26 09:56:28;;;;;;;1.98;1.25;;;;;;;16.93;32.98;100817.25;5049541;28;20385;-77
2023/03/26 09:59:30;;;;;;;3.08;2.13;;;;;;;17.09;34.05;100813.31;5049330;28;20446;-77
2023/03/26 10:02:03;;;;;;;1.70;1.30;;;;;;;16.86;33.16;100803.06;5049849;28;20380;-77
2023/03/26 10:05:10;;;;;;;1.45;1.35;;;;;;;17.02;32.95;100810.63;5052196;28;20373;-78
2023/03/26 10:07:41;;;;;;;1.42;1.10;;;;;;;17.02;32.69;100794.56;5038418;28;20453;-77
2023/03/26 10:10:22;;;;;;;2.30;1.27;;;;;;;17.19;33.35;100793.03;5053697;28;20415;-76
2023/03/26 10:13:09;;;;;;;1.23;1.10;;;;;;;17.16;32.81;100790.81;5054933;28;20373;-76
2023/03/26 10:16:09;;;;;;;3.70;1.80;;;;;;;17.26;33.12;100786.84;5054699;28;20479;-76
2023/03/26 10:18:47;;;;;;;1.00;0.87;;;;;;;17.19;32.15;100770.81;5053666;28;20920;-76
2023/03/26 10:21:34;;;;;;;1.80;1.13;;;;;;;17.41;32.90;100771.31;5054647;28;20384;-77
2023/03/26 10:24:27;;;;;;;1.47;1.03;;;;;;;17.66;32.00;100776.75;5054445;28;20899;-76
2023/03/26 10:27:01;;;;;;;1.75;0.80;;;;;;;17.70;30.87;100783.34;5054267;28;20478;-76
2023/03/26 10:29:42;;;;;;;0.70;0.70;;;;;;;17.58;30.77;100768.97;5054832;28;20380;-77
2023/03/26 10:32:46;;;;;;;2.13;1.30;;;;;;;17.75;31.39;100769.28;5053500;28;20392;-76
2023/03/26 10:35:40;;;;;;;1.08;0.90;;;;;;;17.63;31.09;100766.47;5055255;28;20441;-78
2023/03/26 10:38:43;;;;;;;2.05;0.90;;;;;;;17.62;30.34;100754.09;5053686;28;20420;-77
2023/03/26 10:41:27;;;;;;;1.38;0.77;;;;;;;17.37;30.52;100756.72;5054409;28;20385;-78
2023/03/26 10:44:11;;;;;;;1.33;0.90;;;;;;;17.63;30.30;100755.75;5054765;28;20838;-78
2023/03/26 10:47:18;;;;;;;1.27;0.70;;;;;;;17.63;30.33;100747.72;5054795;28;20470;-79
2023/03/26 10:50:12;;;;;;;1.77;1.20;;;;;;;17.98;31.21;100723.16;5048645;28;20457;-79
2023/03/26 10:52:48;;;;;;;1.83;0.80;;;;;;;17.94;29.68;100721.94;5054465;28;20873;-77
2023/03/26 10:55:30;;;;;;;1.42;0.80;;;;;;;18.10;30.19;100723.25;5054952;28;20389;-77
2023/03/26 10:58:15;;;;;;;1.35;0.70;;;;;;;17.99;29.52;100724.78;5054500;28;20412;-75
2023/03/26 11:00:58;;;;;;;1.55;0.90;;;;;;;18.12;29.53;100719.31;5055032;28;20403;-78
2023/03/26 11:03:50;;;;;;;1.60;0.90;;;;;;;17.95;28.76;100716.38;5054102;28;20428;-77
2023/03/26 11:06:49;;;;;;;1.48;0.70;;;;;;;17.81;28.59;100696.03;5053919;28;20811;-77
2023/03/26 11:09:26;;;;;;;1.55;0.70;;;;;;;18.22;29.00;100693.84;5046638;28;20413;-78
2023/03/26 11:11:52;;;;;;;1.25;0.70;;;;;;;18.48;28.72;100695.44;5054866;28;20853;-77
2023/03/26 11:14:45;;;;;;;1.50;0.80;;;;;;;18.36;28.15;100698.03;5054563;28;20489;-79
2023/03/26 11:17:44;;;;;;;1.33;0.80;;;;;;;18.30;28.10;100675.59;5053073;28;20408;-77
2023/03/26 11:20:47;;;;;;;0.83;0.63;;;;;;;18.28;27.89;100683.06;5053378;28;20485;-77
2023/03/26 11:23:35;;;;;;;1.02;0.70;;;;;;;18.81;29.13;100673.59;5053215;28;20381;-77
2023/03/26 11:26:15;;;;;;;2.10;0.60;;;;;;;18.86;27.82;100686.38;5054018;28;20391;-77
2023/03/26 11:29:24;;;;;;;1.35;0.70;;;;;;;18.73;27.62;100671.22;5053707;28;20396;-77
2023/03/26 11:32:15;;;;;;;2.33;0.80;;;;;;;18.98;28.22;100663.06;5054073;28;20430;-78
2023/03/26 11:34:57;;;;;;;1.77;0.95;;;;;;;19.17;27.82;100649.59;5054020;28;20380;-78
2023/03/26 11:37:32;;;;;;;2.03;0.80;;;;;;;19.00;26.29;100663.66;5049739;28;20414;-78
2023/03/26 11:40:02;;;;;;;1.98;0.70;;;;;;;18.64;25.94;100662.63;5053895;28;20392;-78
2023/03/26 11:42:29;;;;;;;1.33;0.73;;;;;;;18.66;25.38;100657.03;5053414;28;20396;-77
2023/03/26 11:45:17;;;;;;;1.80;0.60;;;;;;;18.38;24.62;100653.00;5052862;28;20381;-77
2023/03/26 11:47:49;;;;;;;1.45;0.70;;;;;;;18.50;24.56;100648.53;5053296;28;20813;-77
2023/03/26 11:50:22;;;;;;;1.33;0.68;;;;;;;18.65;23.62;100636.59;5052663;28;20805;-77
2023/03/26 11:52:48;;;;;;;1.80;0.68;;;;;;;18.72;25.01;100634.66;5053182;28;20405;-77
2023/03/26 11:55:14;;;;;;;1.52;0.70;;;;;;;18.76;24.73;100629.66;5052593;28;20715;-77